createdAt,value
2017-12-05T00:05:34.022Z,82.4
2017-12-05T00:22:11.131Z,82.4
2017-12-05T00:38:48.282Z,82.4
2017-12-05T00:55:25.486Z,82.4
2017-12-05T01:12:02.456Z,82.4
2017-12-05T01:28:39.500Z,82.0
2017-12-05T01:45:16.529Z,82.0
2017-12-05T02:18:30.391Z,82.4
2017-12-05T02:35:07.233Z,82.0
2017-12-05T02:51:43.833Z,82.0
2017-12-05T03:08:21.170Z,82.4
2017-12-05T03:24:57.059Z,82.4
2017-12-05T03:41:33.624Z,82.4
2017-12-05T03:58:10.250Z,82.4
2017-12-05T04:14:46.729Z,82.0
2017-12-05T04:31:23.164Z,82.8
2017-12-05T04:47:59.612Z,82.8
2017-12-05T05:04:36.158Z,82.8
2017-12-05T05:21:12.750Z,82.8
2017-12-05T05:37:49.238Z,82.8
2017-12-05T05:54:25.814Z,82.8
2017-12-05T06:11:02.369Z,82.8
2017-12-05T06:27:38.986Z,82.8
2017-12-05T06:44:15.549Z,82.8
2017-12-05T07:00:52.211Z,82.8
2017-12-05T07:17:28.860Z,82.8
2017-12-05T07:34:05.358Z,82.8
2017-12-05T07:50:41.974Z,82.8
2017-12-05T08:07:19.423Z,83.2
2017-12-05T08:23:55.611Z,83.2
2017-12-05T08:40:32.216Z,83.2
2017-12-05T08:57:08.965Z,83.2
2017-12-05T09:13:45.837Z,83.2
2017-12-05T09:30:22.822Z,83.6
2017-12-05T09:46:59.813Z,83.6
2017-12-05T10:03:37.040Z,82.8
2017-12-05T10:20:24.649Z,82.8
2017-12-05T10:36:55.428Z,82.8
2017-12-05T10:53:28.424Z,82.4
2017-12-05T11:10:06.396Z,82.4
2017-12-05T11:26:43.003Z,82.4
2017-12-05T11:43:20.735Z,82.4
2017-12-05T11:59:57.525Z,82.0
2017-12-05T12:16:34.906Z,82.0
2017-12-05T12:33:12.274Z,82.0
2017-12-05T12:49:49.651Z,81.6
2017-12-05T13:06:27.083Z,81.2
2017-12-05T13:23:04.422Z,81.2
2017-12-05T13:39:41.682Z,81.2
2017-12-05T13:56:19.662Z,81.2
2017-12-05T14:12:56.214Z,80.8
2017-12-05T14:29:33.427Z,80.4
2017-12-05T14:46:11.086Z,80.4
2017-12-05T15:02:47.708Z,80.4
2017-12-05T15:19:24.754Z,80.4
2017-12-05T15:36:02.110Z,80.4
2017-12-05T15:52:39.284Z,80.4
2017-12-05T16:09:16.274Z,80.4
2017-12-05T16:25:53.564Z,80.4
2017-12-05T16:42:30.711Z,80.4
2017-12-05T16:59:07.503Z,80.0
2017-12-05T17:15:44.625Z,80.0
2017-12-05T17:32:21.873Z,79.6
2017-12-05T17:48:58.845Z,79.6
2017-12-05T18:05:35.912Z,79.6
2017-12-05T18:22:13.044Z,79.6
2017-12-05T18:38:50.207Z,79.6
2017-12-05T18:55:27.293Z,79.6
2017-12-05T19:12:04.471Z,79.6
2017-12-05T19:28:41.540Z,79.6
2017-12-05T19:45:18.736Z,79.6
2017-12-05T20:01:57.893Z,79.6
2017-12-05T20:18:33.750Z,79.6
2017-12-05T20:35:10.166Z,79.2
2017-12-05T20:51:49.615Z,78.8
2017-12-05T21:08:25.984Z,78.8
2017-12-05T21:25:04.930Z,78.8
2017-12-05T21:41:39.664Z,78.8
2017-12-05T21:58:15.815Z,78.8
2017-12-05T22:14:53.072Z,78.8
2017-12-05T22:31:29.968Z,78.4
2017-12-05T22:48:07.648Z,78.0
2017-12-05T23:04:44.020Z,78.0
2017-12-05T23:37:58.075Z,77.2
2017-12-05T23:54:35.381Z,77.2
